Time;durP1;ratioP1;P1;durP2;ratioP2;P2;SDS_P1;SDS_P2;PMS_P1;PMS_P2;Temp;Humidity;BMP_temperature;BMP_pressure;BME280_temperature;BME280_humidity;BME280_pressure;Samples;Min_cycle;Max_cycle;Signal;HPM_P1;HPM_P2
2023/04/24 00:02:11;;;;;;;8.88;6.25;;;;;;;10.00;60.27;94558.97;5054512;28;20087;-76
2023/04/24 00:04:40;;;;;;;9.65;6.32;;;;;;;10.06;60.34;94554.09;5037294;28;20024;-77
2023/04/24 00:07:06;;;;;;;7.57;6.30;;;;;;;10.06;60.10;94543.72;5037778;28;20037;-76
2023/04/24 00:09:32;;;;;;;10.48;5.88;;;;;;;9.93;59.29;94524.13;5036832;28;20039;-76
2023/04/24 00:11:57;;;;;;;8.35;5.80;;;;;;;10.15;57.38;94525.72;5037928;28;20024;-76
2023/04/24 00:14:23;;;;;;;9.35;5.70;;;;;;;10.15;57.81;94526.53;5071750;28;20036;-76
2023/04/24 00:16:49;;;;;;;7.35;6.30;;;;;;;10.12;59.77;94524.19;5037705;28;20051;-76
2023/04/24 00:19:15;;;;;;;9.95;6.28;;;;;;;10.15;59.26;94518.75;5054134;28;20021;-76
2023/04/24 00:21:41;;;;;;;6.68;5.65;;;;;;;10.17;59.02;94523.78;5054082;28;20039;-77
2023/04/24 00:24:08;;;;;;;7.70;6.75;;;;;;;9.96;59.25;94508.28;5053668;28;20054;-77
2023/04/24 00:26:34;;;;;;;7.45;5.68;;;;;;;10.01;58.56;94503.53;5037544;28;20414;-77
2023/04/24 00:28:59;;;;;;;11.38;6.68;;;;;;;9.95;58.19;94489.31;5020825;28;20024;-77
2023/04/24 00:31:25;;;;;;;7.15;5.88;;;;;;;10.09;58.56;94498.50;5054082;28;20041;-76
2023/04/24 00:33:50;;;;;;;11.35;6.97;;;;;;;9.91;58.94;94502.66;5053569;28;20502;-76
2023/04/24 00:36:16;;;;;;;12.43;6.80;;;;;;;9.71;59.20;94505.16;5053795;28;20029;-76
2023/04/24 00:38:41;;;;;;;8.80;6.13;;;;;;;9.56;59.30;94493.50;5071736;28;20556;-77
2023/04/24 00:41:07;;;;;;;10.35;6.47;;;;;;;9.51;59.40;94501.66;5037051;28;20043;-77
2023/04/24 00:43:32;;;;;;;9.35;6.40;;;;;;;9.34;59.43;94490.09;5036707;28;20040;-76
2023/04/24 00:45:59;;;;;;;7.47;6.72;;;;;;;9.31;60.82;94503.31;5050723;28;20035;-76
2023/04/24 00:48:24;;;;;;;10.63;7.13;;;;;;;9.16;61.17;94513.19;5057118;28;20059;-76
2023/04/24 00:50:50;;;;;;;9.05;6.57;;;;;;;9.14;60.74;94501.31;5040341;28;20113;-76
2023/04/24 00:53:15;;;;;;;10.75;6.93;;;;;;;9.30;59.80;94514.63;5073315;28;20024;-77
2023/04/24 00:55:41;;;;;;;9.68;6.20;;;;;;;9.26;59.87;94513.25;5056865;28;20035;-76
2023/04/24 00:58:06;;;;;;;9.38;6.82;;;;;;;9.34;59.58;94513.44;5040377;28;20039;-76
2023/04/24 01:00:32;;;;;;;9.55;6.80;;;;;;;9.30;60.70;94506.84;5073851;28;20028;-77
2023/04/24 01:02:59;;;;;;;8.88;6.80;;;;;;;9.34;60.81;94520.41;5073267;28;20060;-77
2023/04/24 01:05:25;;;;;;;8.48;6.28;;;;;;;9.27;60.99;94517.47;5057046;28;20081;-77
2023/04/24 01:07:50;;;;;;;9.65;6.38;;;;;;;9.15;61.31;94527.06;5057107;28;20440;-77
2023/04/24 01:10:17;;;;;;;8.80;6.93;;;;;;;9.04;61.55;94526.31;5091651;28;20452;-76
2023/04/24 01:12:43;;;;;;;10.60;6.55;;;;;;;9.07;61.56;94529.47;5056876;28;20032;-76
2023/04/24 01:15:09;;;;;;;8.85;6.22;;;;;;;8.97;61.14;94513.03;5091317;28;20078;-76
2023/04/24 01:17:34;;;;;;;8.13;5.90;;;;;;;9.04;62.05;94523.72;5073772;28;20600;-76
2023/04/24 01:20:00;;;;;;;14.73;6.32;;;;;;;9.00;62.30;94519.72;5057383;28;20032;-76
2023/04/24 01:22:26;;;;;;;9.82;6.60;;;;;;;8.91;62.55;94523.88;5077237;28;20031;-77
2023/04/24 01:24:52;;;;;;;12.10;6.03;;;;;;;8.88;61.57;94509.41;5077621;28;20028;-76
2023/04/24 01:27:18;;;;;;;9.57;6.47;;;;;;;9.00;63.01;94517.13;5077515;28;20024;-76
2023/04/24 01:29:44;;;;;;;10.10;6.68;;;;;;;8.82;63.89;94494.38;5060695;28;20020;-76
2023/04/24 01:32:09;;;;;;;10.57;6.47;;;;;;;9.07;61.51;94500.16;5060298;28;20028;-76
2023/04/24 01:34:35;;;;;;;9.68;6.85;;;;;;;8.90;62.14;94460.88;5060446;28;20024;-76
2023/04/24 01:37:00;;;;;;;10.35;6.75;;;;;;;9.33;61.67;94504.03;5095271;28;20036;-76
2023/04/24 01:39:28;;;;;;;10.00;7.50;;;;;;;9.38;61.24;94475.91;5060394;28;20063;-76
2023/04/24 01:41:54;;;;;;;11.18;7.65;;;;;;;9.55;61.86;94487.47;5060800;28;20031;-77
2023/04/24 01:44:19;;;;;;;10.43;7.97;;;;;;;9.58;61.30;94461.31;5076949;28;20031;-77
2023/04/24 01:46:45;;;;;;;13.15;8.50;;;;;;;9.65;61.65;94471.97;5040504;28;20060;-77
2023/04/24 01:49:10;;;;;;;15.23;8.82;;;;;;;9.51;61.97;94470.53;5040332;28;20043;-77
2023/04/24 01:51:36;;;;;;;10.55;8.18;;;;;;;9.48;62.20;94475.19;5023521;28;20039;-77
2023/04/24 01:54:01;;;;;;;13.55;8.38;;;;;;;9.58;61.60;94482.06;5040094;28;20032;-76
2023/04/24 01:56:28;;;;;;;14.30;8.73;;;;;;;9.56;61.67;94467.56;5056650;28;20043;-76
2023/04/24 01:58:54;;;;;;;10.02;8.50;;;;;;;9.46;61.78;94469.28;5040368;28;20477;-76
2023/04/24 02:01:20;;;;;;;10.32;8.27;;;;;;;9.46;61.54;94469.28;5039926;28;20067;-76
2023/04/24 02:03:46;;;;;;;10.73;8.40;;;;;;;9.43;61.41;94464.38;5023686;28;20035;-76
2023/04/24 02:06:11;;;;;;;12.25;8.45;;;;;;;9.46;61.26;94454.53;5056850;28;20032;-76
2023/04/24 02:08:37;;;;;;;11.13;8.00;;;;;;;9.43;61.68;94454.81;5039960;28;20029;-77
2023/04/24 02:11:02;;;;;;;10.77;8.60;;;;;;;9.41;62.61;94443.72;5074360;28;20028;-76
2023/04/24 02:13:28;;;;;;;12.00;8.90;;;;;;;9.28;64.79;94459.50;5039987;28;20032;-77
2023/04/24 02:15:53;;;;;;;12.23;8.45;;;;;;;9.25;63.21;94446.81;5057502;28;20068;-76
2023/04/24 02:18:19;;;;;;;11.48;8.85;;;;;;;9.03;65.54;94465.91;5094541;28;20024;-77
2023/04/24 02:20:45;;;;;;;11.35;8.65;;;;;;;8.86;66.06;94454.34;5076358;28;20040;-76
2023/04/24 02:23:10;;;;;;;13.98;8.57;;;;;;;8.95;65.19;94469.13;5043178;28;20054;-76
2023/04/24 02:25:36;;;;;;;11.15;8.75;;;;;;;8.60;65.09;94465.97;5059600;28;20520;-77
2023/04/24 02:28:02;;;;;;;14.13;8.80;;;;;;;8.65;65.93;94461.25;5076265;28;20047;-77
2023/04/24 02:30:27;;;;;;;12.82;8.75;;;;;;;8.25;66.37;94457.47;5094043;28;20036;-76
2023/04/24 02:32:53;;;;;;;10.70;8.75;;;;;;;8.08;66.52;94473.50;5093172;28;20047;-76
2023/04/24 02:35:19;;;;;;;10.30;8.45;;;;;;;7.86;67.91;94443.31;5076207;28;20043;-77
2023/04/24 02:37:44;;;;;;;11.90;8.93;;;;;;;7.94;68.35;94469.41;5059432;28;20028;-76
2023/04/24 02:40:09;;;;;;;11.85;8.93;;;;;;;7.86;68.28;94463.19;5075676;28;20032;-76
2023/04/24 02:42:35;;;;;;;13.57;10.85;;;;;;;7.74;69.12;94475.28;5059354;28;20476;-76
2023/04/24 02:45:00;;;;;;;13.90;9.50;;;;;;;7.61;68.42;94468.47;5088231;28;20414;-76
2023/04/24 02:47:26;;;;;;;10.48;8.48;;;;;;;7.67;68.29;94468.94;5055921;28;20028;-77
2023/04/24 02:49:51;;;;;;;13.50;9.07;;;;;;;7.59;68.92;94459.19;5055546;28;20028;-77
2023/04/24 02:52:17;;;;;;;13.32;8.43;;;;;;;7.43;69.18;94451.78;5073683;28;20025;-77
2023/04/24 02:54:43;;;;;;;10.18;8.13;;;;;;;7.32;69.45;94446.59;5039181;28;20032;-77
2023/04/24 02:57:08;;;;;;;12.75;8.93;;;;;;;7.23;70.77;94458.44;5055492;28;20490;-76
2023/04/24 02:59:34;;;;;;;13.52;9.60;;;;;;;7.00;71.82;94444.69;5039067;28;20029;-77
2023/04/24 03:01:59;;;;;;;12.38;9.57;;;;;;;7.04;71.90;94445.28;5055432;28;20056;-76
2023/04/24 03:04:26;;;;;;;11.57;9.02;;;;;;;7.08;72.61;94465.59;5055668;28;20029;-76
2023/04/24 03:06:52;;;;;;;12.90;9.50;;;;;;;7.10;71.97;94445.66;5055275;28;20439;-76
2023/04/24 03:09:18;;;;;;;13.10;9.60;;;;;;;7.05;72.78;94465.81;5055901;28;20052;-76
2023/04/24 03:11:43;;;;;;;11.93;9.98;;;;;;;7.00;72.98;94465.34;5022471;28;20035;-76
2023/04/24 03:14:09;;;;;;;11.48;10.00;;;;;;;7.16;72.55;94465.84;5038726;28;20031;-76
2023/04/24 03:16:34;;;;;;;12.82;9.85;;;;;;;7.30;72.27;94469.97;5073294;28;20463;-76
2023/04/24 03:19:00;;;;;;;12.85;9.93;;;;;;;7.21;72.10;94449.16;5073132;28;20456;-76
2023/04/24 03:21:26;;;;;;;11.77;10.02;;;;;;;7.12;72.26;94446.34;5073055;28;20059;-76
2023/04/24 03:23:52;;;;;;;14.00;11.35;;;;;;;7.19;72.93;94464.81;5071715;28;20036;-76
2023/04/24 03:26:17;;;;;;;13.27;11.15;;;;;;;7.02;72.85;94450.56;5055037;28;20036;-76
2023/04/24 03:28:42;;;;;;;13.23;10.43;;;;;;;6.93;72.86;94431.38;5055271;28;20081;-76
2023/04/24 03:31:08;;;;;;;13.07;10.63;;;;;;;7.14;72.85;94467.72;5038463;28;20506;-77
2023/04/24 03:33:33;;;;;;;15.00;9.93;;;;;;;7.32;72.05;94469.84;5054922;28;20032;-77
2023/04/24 03:35:59;;;;;;;15.27;12.27;;;;;;;7.49;71.91;94466.00;5038113;28;20109;-76
2023/04/24 03:38:24;;;;;;;13.43;10.30;;;;;;;7.56;71.56;94468.00;5038253;28;20020;-76
2023/04/24 03:40:50;;;;;;;13.48;9.75;;;;;;;7.65;70.94;94470.81;5038362;28;20498;-76
2023/04/24 03:43:15;;;;;;;15.38;10.07;;;;;;;7.66;71.11;94460.38;5054781;28;20028;-76
2023/04/24 03:45:41;;;;;;;11.70;9.48;;;;;;;7.83;70.54;94474.59;5065797;28;20069;-76
2023/04/24 03:48:07;;;;;;;14.13;10.10;;;;;;;7.80;70.91;94469.63;5058129;28;20032;-77
2023/04/24 03:50:32;;;;;;;11.75;9.75;;;;;;;7.79;71.27;94473.16;5058372;28;20496;-76
2023/04/24 03:52:58;;;;;;;12.52;9.25;;;;;;;7.95;70.71;94472.81;5054053;28;20040;-76
2023/04/24 03:55:23;;;;;;;12.02;9.23;;;;;;;7.88;70.15;94454.34;5037535;28;20043;-76
2023/04/24 03:57:49;;;;;;;10.93;9.02;;;;;;;8.06;69.71;94463.25;5074609;28;20021;-77
2023/04/24 04:00:15;;;;;;;9.57;8.13;;;;;;;8.14;69.38;94461.84;5057350;28;20456;-77
2023/04/24 04:02:41;;;;;;;10.65;8.43;;;;;;;8.44;68.58;94472.38;5069089;28;20036;-76
2023/04/24 04:05:07;;;;;;;13.32;8.27;;;;;;;8.40;69.08;94462.38;5077397;28;20391;-76
2023/04/24 04:07:33;;;;;;;10.18;8.07;;;;;;;8.52;68.63;94463.16;5060949;28;20024;-76
2023/04/24 04:09:58;;;;;;;11.02;7.70;;;;;;;8.62;68.00;94456.31;5070203;28;20479;-77
2023/04/24 04:12:24;;;;;;;10.40;8.02;;;;;;;8.76;67.30;94468.97;5072165;28;20020;-76
2023/04/24 04:14:49;;;;;;;10.43;8.30;;;;;;;8.86;67.72;94467.28;5089165;28;20504;-77
2023/04/24 04:17:15;;;;;;;12.23;8.45;;;;;;;8.93;67.51;94465.81;5070537;28;20486;-76
2023/04/24 04:19:40;;;;;;;11.73;8.10;;;;;;;8.95;66.68;94469.13;5071954;28;20036;-76
2023/04/24 04:22:07;;;;;;;8.10;7.07;;;;;;;9.27;65.36;94478.59;5054212;28;20020;-77
2023/04/24 04:24:33;;;;;;;10.05;7.88;;;;;;;9.47;64.32;94468.31;5086216;28;20430;-77
2023/04/24 04:27:00;;;;;;;8.20;6.95;;;;;;;9.60;63.81;94471.53;5065145;28;20036;-77
2023/04/24 04:29:25;;;;;;;10.15;7.97;;;;;;;9.71;63.82;94476.63;5057177;28;20035;-76
2023/04/24 04:31:51;;;;;;;10.02;7.93;;;;;;;9.77;64.10;94470.94;5087158;28;20029;-77
2023/04/24 04:34:16;;;;;;;8.98;7.15;;;;;;;9.82;62.83;94468.75;5064482;28;20036;-75
2023/04/24 04:36:43;;;;;;;9.65;7.53;;;;;;;9.78;62.90;94472.59;5074780;28;20090;-77
2023/04/24 04:39:09;;;;;;;9.27;7.20;;;;;;;9.93;62.41;94469.63;5069238;28;20059;-77
2023/04/24 04:41:37;;;;;;;8.70;7.80;;;;;;;10.20;61.22;94467.25;5053845;28;20062;-76
2023/04/24 04:44:04;;;;;;;11.20;7.82;;;;;;;10.12;60.92;94461.09;5066566;28;20055;-77
2023/04/24 04:46:32;;;;;;;9.93;7.88;;;;;;;10.24;60.98;94468.63;5092337;28;20028;-79
2023/04/24 04:48:58;;;;;;;9.85;7.70;;;;;;;10.23;60.92;94473.97;5074381;28;20070;-79
2023/04/24 04:51:23;;;;;;;8.32;6.80;;;;;;;10.25;60.60;94472.88;5078673;28;20453;-79
2023/04/24 04:53:49;;;;;;;9.60;7.35;;;;;;;10.16;61.06;94476.25;5076628;28;20464;-77
2023/04/24 04:56:14;;;;;;;8.73;7.15;;;;;;;10.24;61.03;94478.19;5071176;28;20441;-77
2023/04/24 04:58:40;;;;;;;10.90;7.20;;;;;;;10.28;61.08;94487.41;5071083;28;20040;-78
2023/04/24 05:01:06;;;;;;;9.40;7.20;;;;;;;10.27;61.23;94496.94;5077175;28;20025;-78
2023/04/24 05:03:32;;;;;;;10.43;7.00;;;;;;;10.25;61.06;94500.59;5082983;28;20085;-78
2023/04/24 05:05:57;;;;;;;10.70;7.43;;;;;;;10.12;61.67;94500.84;5087421;28;20036;-78
2023/04/24 05:08:23;;;;;;;9.75;7.93;;;;;;;10.25;61.54;94492.78;5049333;28;20025;-78
2023/04/24 05:10:48;;;;;;;10.15;7.45;;;;;;;10.40;61.17;94498.50;5054767;28;20028;-78
2023/04/24 05:13:14;;;;;;;8.00;7.20;;;;;;;10.33;61.05;94486.97;5079820;28;20036;-78
2023/04/24 05:15:39;;;;;;;9.73;7.60;;;;;;;10.40;60.77;94506.28;5075512;28;20379;-78
2023/04/24 05:18:05;;;;;;;9.77;7.50;;;;;;;10.02;61.89;94494.78;5073525;28;20122;-78
2023/04/24 05:20:30;;;;;;;9.90;6.93;;;;;;;10.28;61.49;94497.78;5066388;28;20043;-78
2023/04/24 05:22:56;;;;;;;8.30;7.40;;;;;;;10.34;61.47;94489.47;5074197;28;20047;-79
2023/04/24 05:25:21;;;;;;;11.15;8.27;;;;;;;10.51;60.40;94509.56;5067806;28;20410;-78
2023/04/24 05:27:47;;;;;;;12.98;9.15;;;;;;;10.44;60.73;94494.66;5029126;28;20032;-76
2023/04/24 05:30:13;;;;;;;11.95;8.68;;;;;;;10.51;60.96;94491.41;5090055;28;20104;-76
2023/04/24 05:32:39;;;;;;;10.35;7.85;;;;;;;10.70;60.78;94505.38;5089217;28;20048;-76
2023/04/24 05:35:05;;;;;;;9.05;7.53;;;;;;;10.79;60.13;94504.56;5070577;28;20039;-76
2023/04/24 05:37:30;;;;;;;8.52;6.78;;;;;;;10.95;59.41;94491.84;5066455;28;20562;-76
2023/04/24 05:39:56;;;;;;;8.70;6.88;;;;;;;11.11;59.40;94498.25;5055419;28;20035;-76
2023/04/24 05:42:21;;;;;;;7.93;7.07;;;;;;;11.26;58.92;94496.06;5084137;28;20499;-76
2023/04/24 05:44:47;;;;;;;8.63;7.53;;;;;;;11.38;58.71;94479.34;5078511;28;20540;-76
2023/04/24 05:47:12;;;;;;;12.63;7.60;;;;;;;11.72;58.64;94500.47;5084775;28;20039;-76
2023/04/24 05:49:37;;;;;;;9.95;8.90;;;;;;;11.84;58.28;94501.16;5087667;28;20032;-75
2023/04/24 05:52:05;;;;;;;8.88;7.40;;;;;;;12.03;57.73;94501.06;5066748;28;20024;-76
2023/04/24 05:54:30;;;;;;;8.38;7.47;;;;;;;12.03;57.13;94489.84;5066899;28;20028;-76
2023/04/24 05:56:56;;;;;;;9.32;7.32;;;;;;;12.26;56.50;94496.34;5035559;28;20573;-76
2023/04/24 05:59:21;;;;;;;10.68;7.78;;;;;;;12.54;55.53;94488.50;5056465;28;20050;-76
2023/04/24 06:01:47;;;;;;;8.95;7.40;;;;;;;12.79;55.56;94502.59;5064475;28;20064;-76
2023/04/24 06:04:13;;;;;;;13.25;7.97;;;;;;;13.12;54.42;94474.19;5068329;28;20035;-76
2023/04/24 06:06:39;;;;;;;9.70;7.13;;;;;;;13.48;53.11;94482.00;5079849;28;20038;-76
2023/04/24 06:09:04;;;;;;;8.48;7.25;;;;;;;13.54;52.69;94473.56;5092255;28;20027;-76
2023/04/24 06:11:30;;;;;;;9.50;7.80;;;;;;;13.68;52.51;94486.06;5103815;28;20035;-76
2023/04/24 06:13:56;;;;;;;8.45;7.10;;;;;;;13.79;52.27;94485.81;5074501;28;20051;-76
2023/04/24 06:16:21;;;;;;;8.90;6.93;;;;;;;13.97;51.21;94490.13;5081988;28;20513;-76
2023/04/24 06:18:47;;;;;;;8.55;6.32;;;;;;;14.20;49.86;94491.22;5054259;28;20031;-76
2023/04/24 06:21:12;;;;;;;9.85;6.85;;;;;;;14.41;49.58;94474.31;5070243;28;20040;-76
2023/04/24 06:23:38;;;;;;;8.73;6.32;;;;;;;14.73;48.60;94484.06;5058998;28;20506;-76
2023/04/24 06:26:03;;;;;;;8.68;7.03;;;;;;;14.89;47.82;94472.81;5065989;28;20039;-76
2023/04/24 06:28:29;;;;;;;8.73;6.95;;;;;;;15.13;48.38;94495.59;5053270;28;20032;-76
2023/04/24 06:30:55;;;;;;;9.73;7.28;;;;;;;15.23;47.25;94492.78;5062668;28;20032;-77
2023/04/24 06:33:21;;;;;;;15.40;8.35;;;;;;;14.79;48.15;94480.81;5054239;28;20082;-76
2023/04/24 06:35:46;;;;;;;13.93;8.32;;;;;;;14.96;48.41;94485.09;5071757;28;20037;-77
2023/04/24 06:38:12;;;;;;;11.05;7.63;;;;;;;15.39;47.01;94484.94;5072014;28;20024;-76
2023/04/24 06:40:37;;;;;;;12.90;7.57;;;;;;;15.43;46.74;94481.00;5055665;28;20028;-76
2023/04/24 06:43:03;;;;;;;10.35;7.20;;;;;;;15.71;46.06;94483.28;5071424;28;20108;-77
2023/04/24 06:45:30;;;;;;;13.45;7.97;;;;;;;15.82;45.81;94485.56;5071827;28;20032;-77
2023/04/24 06:47:56;;;;;;;11.85;7.47;;;;;;;16.04;44.90;94490.09;5053976;28;20502;-76
2023/04/24 06:50:21;;;;;;;11.77;7.88;;;;;;;15.85;44.69;94452.03;5054066;28;20032;-77
2023/04/24 06:52:47;;;;;;;15.48;8.10;;;;;;;15.30;46.21;94496.41;5070499;28;20616;-76
2023/04/24 06:55:12;;;;;;;11.27;7.72;;;;;;;15.53;46.55;94494.75;5053386;28;20056;-76
2023/04/24 06:57:38;;;;;;;12.98;8.10;;;;;;;15.82;45.68;94491.66;5069661;28;20024;-77
2023/04/24 07:00:05;;;;;;;8.23;7.32;;;;;;;16.07;45.33;94495.03;5069753;28;20032;-77
2023/04/24 07:02:30;;;;;;;12.70;8.82;;;;;;;16.23;44.38;94499.38;5072874;28;20041;-77
2023/04/24 07:04:56;;;;;;;10.27;8.02;;;;;;;16.35;44.28;94486.72;5071962;28;20078;-77
2023/04/24 07:07:23;;;;;;;11.25;8.50;;;;;;;16.18;43.94;94500.88;5073334;28;20020;-77
2023/04/24 07:09:49;;;;;;;14.55;8.65;;;;;;;15.94;44.68;94489.47;5072168;28;20043;-77
2023/04/24 07:12:14;;;;;;;11.60;8.18;;;;;;;15.83;45.35;94480.19;5055484;28;20410;-77
2023/04/24 07:14:40;;;;;;;12.48;8.75;;;;;;;16.21;44.31;94487.41;5071763;28;20041;-77
2023/04/24 07:17:06;;;;;;;10.82;8.25;;;;;;;15.55;44.86;94474.47;5055201;28;20029;-77
2023/04/24 07:19:32;;;;;;;10.60;8.25;;;;;;;15.19;46.25;94474.00;5071595;28;20108;-77
2023/04/24 07:21:58;;;;;;;11.75;8.70;;;;;;;15.22;46.32;94475.47;5038749;28;20039;-77
2023/04/24 07:24:24;;;;;;;12.93;7.80;;;;;;;15.58;45.24;94474.13;5055044;28;20028;-77
2023/04/24 07:26:51;;;;;;;13.88;8.57;;;;;;;15.55;45.13;94450.91;5071731;28;20037;-77
2023/04/24 07:29:17;;;;;;;9.27;7.75;;;;;;;15.63;45.01;94471.03;5038493;28;20123;-77
2023/04/24 07:31:42;;;;;;;9.50;7.03;;;;;;;15.88;44.46;94469.22;5054987;28;20044;-77
2023/04/24 07:34:07;;;;;;;8.77;7.10;;;;;;;15.75;43.97;94464.47;5038368;28;20448;-77
2023/04/24 07:36:33;;;;;;;10.57;7.22;;;;;;;15.71;43.90;94459.72;5071786;28;20037;-77
2023/04/24 07:38:58;;;;;;;9.05;7.80;;;;;;;16.11;43.96;94473.72;5054945;28;20028;-77
2023/04/24 07:41:24;;;;;;;7.60;6.75;;;;;;;16.53;42.79;94466.31;5071666;28;20048;-77
2023/04/24 07:43:49;;;;;;;9.50;6.60;;;;;;;16.75;43.14;94456.84;5054552;28;20029;-77
2023/04/24 07:46:15;;;;;;;7.90;6.38;;;;;;;17.04;42.05;94451.94;5054920;28;20028;-77
2023/04/24 07:48:40;;;;;;;8.57;6.20;;;;;;;16.46;42.45;94454.88;5054862;28;20410;-77
2023/04/24 07:51:06;;;;;;;9.85;6.50;;;;;;;16.36;43.13;94461.34;5054532;28;20446;-77
2023/04/24 07:53:31;;;;;;;10.05;7.00;;;;;;;16.61;43.06;94454.16;5054347;28;20101;-77
2023/04/24 07:55:57;;;;;;;9.75;6.97;;;;;;;17.17;41.95;94455.63;5054661;28;20410;-77
2023/04/24 07:58:22;;;;;;;7.57;6.28;;;;;;;17.42;41.42;94444.91;5054678;28;20024;-77
2023/04/24 08:00:47;;;;;;;12.77;6.60;;;;;;;17.31;41.28;94448.78;5071237;28;20036;-77
2023/04/24 08:03:14;;;;;;;10.25;6.70;;;;;;;17.13;41.56;94445.63;5054282;28;20071;-77
2023/04/24 08:05:40;;;;;;;9.63;6.15;;;;;;;17.33;41.29;94440.75;5054558;28;20033;-77
2023/04/24 08:08:06;;;;;;;10.27;6.05;;;;;;;17.33;41.39;94438.94;5071085;28;20498;-77
2023/04/24 08:10:31;;;;;;;11.20;6.30;;;;;;;17.63;40.72;94434.56;5054405;28;20040;-77
2023/04/24 08:12:56;;;;;;;8.57;6.50;;;;;;;17.89;40.14;94443.03;5070750;28;20338;-77
2023/04/24 08:15:22;;;;;;;7.30;5.60;;;;;;;17.95;39.95;94437.03;5054170;28;20387;-77
2023/04/24 08:17:47;;;;;;;11.27;5.78;;;;;;;18.01;39.45;94426.59;5072165;28;20032;-77
2023/04/24 08:20:13;;;;;;;10.55;6.38;;;;;;;17.90;40.34;94421.00;5054013;28;20037;-77
2023/04/24 08:22:42;;;;;;;10.60;6.03;;;;;;;18.13;39.64;94416.44;5054417;28;20410;-77
2023/04/24 08:25:08;;;;;;;7.63;6.15;;;;;;;18.23;40.15;94424.88;5070673;28;20505;-77
2023/04/24 08:27:33;;;;;;;7.13;6.25;;;;;;;18.46;39.82;94427.38;5071907;28;20056;-77
2023/04/24 08:29:59;;;;;;;9.25;6.07;;;;;;;18.31;40.44;94421.34;5053267;28;20036;-77
2023/04/24 08:32:27;;;;;;;6.63;5.63;;;;;;;18.18;39.63;94416.72;5053704;28;20040;-77
2023/04/24 08:34:53;;;;;;;9.52;6.20;;;;;;;17.81;40.60;94410.56;5054108;28;20038;-77
2023/04/24 08:37:18;;;;;;;7.80;5.78;;;;;;;17.90;41.09;94407.88;5070536;28;20020;-77
2023/04/24 08:39:44;;;;;;;8.77;5.45;;;;;;;18.04;40.20;94381.56;5053808;28;20086;-77
2023/04/24 08:42:09;;;;;;;10.27;5.50;;;;;;;17.91;40.54;94406.84;5036825;28;20039;-77
2023/04/24 08:44:35;;;;;;;9.30;5.60;;;;;;;17.83;41.35;94398.09;5070495;28;20486;-77
2023/04/24 08:47:05;;;;;;;7.95;5.47;;;;;;;17.76;41.02;94405.00;5071645;28;20419;-77
2023/04/24 08:49:30;;;;;;;12.05;6.00;;;;;;;17.94;40.36;94398.59;5070370;28;20035;-77
2023/04/24 08:51:55;;;;;;;10.38;6.53;;;;;;;17.76;40.96;94401.59;5053543;28;20040;-77
2023/04/24 08:54:21;;;;;;;8.43;5.60;;;;;;;18.19;40.59;94392.09;5070372;28;20032;-77
2023/04/24 08:56:47;;;;;;;7.70;5.53;;;;;;;18.48;39.20;94398.25;5070480;28;20038;-77
2023/04/24 08:59:13;;;;;;;6.43;5.50;;;;;;;17.80;40.05;94390.56;5070335;28;20495;-77
2023/04/24 09:01:39;;;;;;;7.10;5.93;;;;;;;17.93;39.82;94387.28;5069958;28;20036;-77
2023/04/24 09:04:05;;;;;;;7.57;5.20;;;;;;;18.35;39.31;94385.78;5037072;28;20028;-77
2023/04/24 09:06:31;;;;;;;6.25;5.60;;;;;;;18.37;39.08;94386.41;5053708;28;20032;-77
2023/04/24 09:08:59;;;;;;;6.50;5.20;;;;;;;18.59;39.16;94378.56;5070199;28;20068;-77
2023/04/24 09:11:25;;;;;;;14.20;5.75;;;;;;;18.14;40.11;94378.66;5055400;28;20032;-77
2023/04/24 09:13:51;;;;;;;8.73;5.53;;;;;;;18.31;39.81;94361.69;5072726;28;20036;-77
2023/04/24 09:16:16;;;;;;;7.93;5.55;;;;;;;18.44;39.85;94368.06;5073610;28;20035;-77
2023/04/24 09:18:42;;;;;;;6.03;5.35;;;;;;;18.04;40.12;94378.13;5056719;28;20040;-77
2023/04/24 09:21:08;;;;;;;8.82;5.35;;;;;;;18.32;39.64;94367.75;5090379;28;20036;-77
2023/04/24 09:23:33;;;;;;;6.10;5.50;;;;;;;18.65;38.61;94367.28;5073066;28;20024;-77
2023/04/24 09:26:00;;;;;;;6.80;5.25;;;;;;;17.89;39.56;94366.84;5073615;28;20048;-77
2023/04/24 09:28:34;;;;;;;6.35;5.18;;;;;;;17.93;40.15;94354.94;5056494;28;20064;-77
2023/04/24 09:31:06;;;;;;;10.70;5.43;;;;;;;18.23;40.41;94361.78;5072956;28;20070;-77
2023/04/24 09:33:32;;;;;;;5.88;5.28;;;;;;;18.48;39.29;94348.31;5091347;28;20036;-77
2023/04/24 09:35:58;;;;;;;7.57;5.28;;;;;;;18.60;38.50;94338.91;5073242;28;20024;-77
2023/04/24 09:38:31;;;;;;;7.28;5.20;;;;;;;18.52;39.14;94345.09;5073351;28;20085;-77
2023/04/24 09:41:00;;;;;;;7.55;5.15;;;;;;;18.34;40.24;94318.44;5092500;28;20031;-77
2023/04/24 09:43:26;;;;;;;8.07;4.97;;;;;;;18.75;39.01;94344.16;5077311;28;20028;-77
2023/04/24 09:45:55;;;;;;;6.40;5.05;;;;;;;18.85;39.11;94349.09;5060922;28;20054;-77
2023/04/24 09:48:20;;;;;;;8.32;5.22;;;;;;;18.96;38.28;94335.41;5094574;28;20035;-77
2023/04/24 09:50:46;;;;;;;7.30;4.95;;;;;;;19.13;37.48;94335.94;5077521;28;20024;-77
2023/04/24 09:53:12;;;;;;;6.68;4.80;;;;;;;19.15;37.50;94324.22;5076964;28;20035;-77
2023/04/24 09:55:44;;;;;;;7.45;4.90;;;;;;;19.24;38.11;94331.97;5094236;28;20036;-77
2023/04/24 09:58:10;;;;;;;6.18;5.15;;;;;;;19.32;36.98;94323.94;5077339;28;20461;-77
2023/04/24 10:00:36;;;;;;;6.07;4.90;;;;;;;19.54;36.92;94317.59;5077014;28;20020;-77
2023/04/24 10:03:03;;;;;;;6.78;5.50;;;;;;;19.64;37.45;94319.91;5094730;28;20434;-77
2023/04/24 10:05:33;;;;;;;6.82;5.00;;;;;;;19.85;36.94;94311.09;5093900;28;20098;-77
2023/04/24 10:08:00;;;;;;;5.90;4.90;;;;;;;19.84;36.73;94306.84;5076829;28;20071;-77
2023/04/24 10:10:26;;;;;;;6.32;4.82;;;;;;;20.04;36.24;94281.38;5060055;28;20100;-77
2023/04/24 10:12:51;;;;;;;8.82;5.10;;;;;;;20.23;36.31;94294.81;5076171;28;20107;-77
2023/04/24 10:15:20;;;;;;;7.22;5.25;;;;;;;20.36;35.97;94297.47;5059310;28;20036;-77
2023/04/24 10:17:51;;;;;;;9.13;4.95;;;;;;;20.40;36.18;94289.97;5076551;28;20039;-77
2023/04/24 10:20:24;;;;;;;8.55;5.05;;;;;;;20.27;35.55;94274.94;5076439;28;20039;-77
2023/04/24 10:22:51;;;;;;;5.88;4.80;;;;;;;20.27;35.20;94275.75;5059364;28;20123;-77
2023/04/24 10:25:20;;;;;;;7.88;4.88;;;;;;;20.47;34.71;94273.13;5075884;28;20439;-77
2023/04/24 10:27:46;;;;;;;6.90;4.90;;;;;;;20.22;33.46;94264.16;5059192;28;20028;-77
2023/04/24 10:30:12;;;;;;;5.80;4.97;;;;;;;20.06;33.28;94246.91;5075883;28;20087;-77
2023/04/24 10:32:37;;;;;;;9.63;4.90;;;;;;;20.25;33.82;94277.78;5075917;28;20383;-77
2023/04/24 10:35:03;;;;;;;8.60;4.88;;;;;;;20.34;33.94;94261.75;5093966;28;20102;-77
2023/04/24 10:37:29;;;;;;;6.55;4.78;;;;;;;20.45;32.67;94272.53;5075856;28;20035;-77
2023/04/24 10:39:55;;;;;;;5.95;4.80;;;;;;;20.48;32.17;94268.69;5059020;28;20550;-77
2023/04/24 10:42:21;;;;;;;6.22;4.65;;;;;;;20.69;32.42;94262.44;5059382;28;20420;-77
2023/04/24 10:44:48;;;;;;;6.38;4.10;;;;;;;20.73;30.66;94253.13;5058797;28;20024;-77
2023/04/24 10:47:16;;;;;;;5.60;4.40;;;;;;;20.70;29.99;94242.97;5075924;28;20024;-77
2023/04/24 10:49:41;;;;;;;5.35;4.07;;;;;;;20.73;30.46;94242.56;5059514;28;20058;-77
2023/04/24 10:52:08;;;;;;;4.40;3.85;;;;;;;20.80;29.43;94234.63;5058999;28;20608;-77
2023/04/24 10:54:36;;;;;;;4.72;4.00;;;;;;;20.71;30.11;94239.31;5058185;28;20555;-77
2023/04/24 10:57:22;;;;;;;8.20;4.25;;;;;;;20.65;30.02;94240.13;5075726;28;20036;-77
2023/04/24 10:59:49;;;;;;;9.95;3.95;;;;;;;20.65;30.19;94242.75;5093925;28;20489;-77
2023/04/24 11:02:17;;;;;;;6.90;4.43;;;;;;;20.60;30.99;94234.63;5075722;28;20113;-77
2023/04/24 11:04:43;;;;;;;6.93;4.40;;;;;;;20.64;30.99;94222.66;5076277;28;20084;-77
2023/04/24 11:07:11;;;;;;;5.90;4.50;;;;;;;20.58;30.87;94215.53;5075400;28;20460;-77
2023/04/24 11:09:40;;;;;;;6.10;4.50;;;;;;;20.84;31.05;94231.38;5075293;28;20032;-77
2023/04/24 11:12:10;;;;;;;4.63;4.13;;;;;;;20.95;30.25;94214.94;5075917;28;20060;-77
2023/04/24 11:15:02;;;;;;;;;;;;;;;21.14;30.93;94217.72;5075952;28;20093;-77
2023/04/24 11:17:36;;;;;;;5.80;4.47;;;;;;;21.07;30.68;94206.38;5091253;28;20015;-77
2023/04/24 11:20:06;;;;;;;5.03;4.22;;;;;;;21.01;30.94;94201.94;5075612;28;20482;-77
2023/04/24 11:22:34;;;;;;;6.05;4.53;;;;;;;21.15;30.91;94208.81;5075411;28;20038;-77
2023/04/24 11:25:01;;;;;;;5.97;4.43;;;;;;;21.02;30.49;94214.09;5075126;28;20038;-77
2023/04/24 11:27:27;;;;;;;5.30;4.03;;;;;;;20.97;31.52;94220.78;5075768;28;20039;-78